createdAt,value
2023-02-23T13:54:29.838Z,11.90
2023-02-23T13:55:49.150Z,12.55
2023-02-23T13:57:01.230Z,13.07
2023-02-23T13:58:07.374Z,13.93
2023-02-23T13:59:33.793Z,12.88
2023-02-23T14:00:56.101Z,12.43
2023-02-23T14:02:00.868Z,12.95
2023-02-23T14:03:19.424Z,12.57
2023-02-23T14:04:26.955Z,12.32
2023-02-23T14:05:39.420Z,13.25
2023-02-23T14:07:12.752Z,12.93
2023-02-23T14:08:37.011Z,13.90
2023-02-23T14:09:48.117Z,12.65
2023-02-23T14:11:05.621Z,12.65
2023-02-23T14:12:11.063Z,12.27
2023-02-23T14:15:42.064Z,12.43
2023-02-23T14:22:04.728Z,11.57
2023-02-23T14:24:01.261Z,12.73
2023-02-23T14:25:40.282Z,11.57
2023-02-23T14:36:56.582Z,9.95
2023-02-23T14:40:29.033Z,10.17
2023-02-23T14:51:19.129Z,10.30
2023-02-23T14:57:29.984Z,8.45
2023-02-23T14:58:39.940Z,8.77
2023-02-23T15:03:38.252Z,8.70
2023-02-23T15:04:49.153Z,8.65
2023-02-23T15:06:18.493Z,8.52
2023-02-23T15:10:39.075Z,6.40
2023-02-23T15:12:01.558Z,6.70
2023-02-23T15:20:30.691Z,6.40
2023-02-23T15:22:01.775Z,6.03
2023-02-23T15:23:17.421Z,8.18
2023-02-23T15:30:56.662Z,7.22
2023-02-23T15:32:19.596Z,6.90
2023-02-23T15:34:00.129Z,7.20
2023-02-23T15:35:06.027Z,7.07
2023-02-23T15:38:40.575Z,7.38
2023-02-23T15:40:10.506Z,6.47
2023-02-23T15:42:01.797Z,6.65
2023-02-23T15:44:46.431Z,6.20
2023-02-23T15:46:21.372Z,6.22
2023-02-23T15:48:15.392Z,6.80
2023-02-23T15:49:22.405Z,5.32
2023-02-23T15:52:28.872Z,6.60
2023-02-23T15:53:57.087Z,8.07
2023-02-23T15:56:41.941Z,7.22
2023-02-23T15:58:25.468Z,6.72
2023-02-23T15:59:38.705Z,8.43
2023-02-23T16:00:59.929Z,6.47
2023-02-23T16:06:24.354Z,5.57
2023-02-23T16:07:55.370Z,5.82
2023-02-23T16:09:53.685Z,4.93
2023-02-23T16:11:19.806Z,5.38
2023-02-23T16:12:37.479Z,5.25
2023-02-23T16:13:51.808Z,5.50
2023-02-23T16:16:48.726Z,5.50
2023-02-23T16:18:01.258Z,5.05
2023-02-23T16:19:07.768Z,5.25
2023-02-23T16:31:08.939Z,5.90
2023-02-23T16:32:16.725Z,5.72
2023-02-23T16:33:52.144Z,5.90
2023-02-23T16:34:59.998Z,9.85
2023-02-23T16:36:20.399Z,9.52
2023-02-23T16:37:46.832Z,9.88
2023-02-23T16:56:46.495Z,10.52
2023-02-23T16:57:54.340Z,10.30
2023-02-23T16:58:59.075Z,11.35
2023-02-23T17:00:01.849Z,10.55
2023-02-23T17:01:03.947Z,9.57
2023-02-23T17:02:11.044Z,9.95
2023-02-23T17:03:26.806Z,11.30
2023-02-23T17:04:29.578Z,10.23
2023-02-23T17:05:34.883Z,11.05
2023-02-23T17:06:38.358Z,23.83
2023-02-23T17:07:40.062Z,18.70
2023-02-23T17:08:52.178Z,16.52
